LSZH/ZRH METAR and TAF weather

Enter ICAO airport designator
Station Type Date Time Source
LSZH METAR 2021/09/23 18:20 UTC NOAA

LSZH 231820Z VRB01KT CAVOK 15/13 Q1021 NOSIG


Station Type Date Time Source
LSZH Decoded METAR 2021/09/23 18:20 UTC NOAA

Zurich-Kloten, Switzerland (LSZH) 47-29N 008-32E 432M
Sep 23, 2021 - 02:20 PM EDT / 2021.09.23 1820 UTC
Wind: Variable at 1 MPH (1 KT):0
Visibility: greater than 7 mile(s):0
Temperature: 59 F (15 C)
Dew Point: 55 F (13 C)
Relative Humidity: 87%
Pressure (altimeter): 30.15 in. Hg (1021 hPa)
ob: LSZH 231820Z VRB01KT CAVOK 15/13 Q1021 NOSIG
cycle: 18

Station Type Date Time Source
LSZH TAF 2021/09/23 18:33 UTC NOAA

TAF LSZH 231725Z 2318/2424 22004KT CAVOK TX22/2415Z TN08/2405Z
BECMG 2323/2402 3000 MIFG NSC
BECMG 2402/2404 1200 PRFG PROB30 2403/2407 0300 FG VV001
BECMG 2407/2409 4000 BR SCT003
BECMG 2409/2411 CAVOK

Example: see airport list